createdAt,value
2022-09-23T00:01:27.383Z,8.04
2022-09-23T00:03:55.474Z,8.00
2022-09-23T00:06:24.605Z,7.98
2022-09-23T00:08:52.858Z,8.02
2022-09-23T00:11:23.821Z,8.06
2022-09-23T00:13:55.723Z,8.08
2022-09-23T00:16:30.427Z,8.10
2022-09-23T00:18:58.568Z,8.13
2022-09-23T00:21:27.105Z,8.15
2022-09-23T00:23:55.483Z,8.18
2022-09-23T00:26:23.976Z,8.19
2022-09-23T00:28:52.047Z,8.19
2022-09-23T00:31:26.118Z,8.19
2022-09-23T00:34:00.704Z,8.20
2022-09-23T00:36:30.462Z,8.20
2022-09-23T00:38:58.657Z,8.22
2022-09-23T00:41:27.295Z,8.23
2022-09-23T00:44:00.248Z,8.22
2022-09-23T00:46:37.637Z,8.21
2022-09-23T00:49:29.430Z,8.21
2022-09-23T00:52:07.887Z,8.20
2022-09-23T00:54:35.959Z,8.19
2022-09-23T00:57:05.869Z,8.19
2022-09-23T00:59:34.793Z,8.13
2022-09-23T01:02:03.643Z,8.05
2022-09-23T01:04:31.966Z,7.97
2022-09-23T01:07:02.358Z,7.90
2022-09-23T01:09:30.412Z,7.83
2022-09-23T01:12:12.956Z,7.77
2022-09-23T01:14:53.184Z,7.71
2022-09-23T01:18:00.369Z,7.76
2022-09-23T01:20:41.857Z,7.78
2022-09-23T01:23:30.807Z,7.68
2022-09-23T01:26:23.360Z,7.59
2022-09-23T01:29:38.335Z,7.52
2022-09-23T01:32:26.959Z,7.46
2022-09-23T01:35:23.883Z,7.43
2022-09-23T01:38:40.168Z,7.42
2022-09-23T01:41:23.367Z,7.41
2022-09-23T01:44:29.737Z,7.40
2022-09-23T01:47:08.257Z,7.37
2022-09-23T01:50:30.211Z,7.35
2022-09-23T01:53:05.017Z,7.33
2022-09-23T01:55:38.422Z,7.31
2022-09-23T01:58:16.105Z,7.29
2022-09-23T02:00:53.574Z,7.27
2022-09-23T02:03:50.115Z,7.25
2022-09-23T02:06:31.622Z,7.23
2022-09-23T02:09:03.323Z,7.21
2022-09-23T02:11:36.479Z,7.19
2022-09-23T02:14:24.659Z,7.19
2022-09-23T02:16:56.172Z,7.18
2022-09-23T02:19:37.749Z,7.16
2022-09-23T02:22:16.336Z,7.16
2022-09-23T02:24:51.286Z,7.16
2022-09-23T02:27:48.018Z,7.16
2022-09-23T02:30:27.242Z,7.15
2022-09-23T02:33:11.907Z,7.15
2022-09-23T02:35:49.277Z,7.14
2022-09-23T02:38:39.229Z,7.14
2022-09-23T02:41:24.010Z,7.14
2022-09-23T02:44:08.284Z,7.11
2022-09-23T02:46:37.179Z,7.09
2022-09-23T02:49:20.172Z,7.08
2022-09-23T02:51:48.044Z,7.06
2022-09-23T02:54:26.156Z,7.04
2022-09-23T02:56:54.847Z,7.03
2022-09-23T02:59:24.192Z,7.01
2022-09-23T03:02:17.541Z,6.99
2022-09-23T03:05:12.764Z,6.97
2022-09-23T03:08:15.304Z,6.97
2022-09-23T03:10:59.712Z,6.97
2022-09-23T03:13:54.202Z,6.98
2022-09-23T03:16:36.371Z,6.99
2022-09-23T03:19:47.933Z,6.97
2022-09-23T03:22:34.546Z,6.96
2022-09-23T03:25:08.302Z,6.96
2022-09-23T03:27:37.339Z,6.95
2022-09-23T03:30:07.524Z,6.92
2022-09-23T03:32:36.631Z,6.89
2022-09-23T03:35:07.516Z,6.87
2022-09-23T03:37:47.524Z,6.85
2022-09-23T03:40:34.171Z,6.82
2022-09-23T03:43:05.138Z,6.79
2022-09-23T03:45:34.464Z,6.76
2022-09-23T03:48:03.721Z,6.74
2022-09-23T03:50:32.050Z,6.71
2022-09-23T03:53:00.235Z,6.70
2022-09-23T03:55:28.616Z,6.67
2022-09-23T03:57:56.899Z,6.65
2022-09-23T04:00:25.114Z,6.63
2022-09-23T04:02:53.398Z,6.61
2022-09-23T04:05:21.561Z,6.60
2022-09-23T04:07:51.200Z,6.58
2022-09-23T04:10:19.423Z,6.57
2022-09-23T04:12:47.543Z,6.56
2022-09-23T04:15:15.904Z,6.54
2022-09-23T04:17:43.951Z,6.53
2022-09-23T04:20:13.108Z,6.52
2022-09-23T04:22:41.493Z,6.51
2022-09-23T04:25:09.998Z,6.49
2022-09-23T04:27:38.228Z,6.48
2022-09-23T04:30:07.554Z,6.46
2022-09-23T04:32:37.235Z,6.45
2022-09-23T04:35:06.878Z,6.44
2022-09-23T04:37:34.832Z,6.44
2022-09-23T04:40:03.377Z,6.43
2022-09-23T04:42:31.431Z,6.42
2022-09-23T04:44:59.300Z,6.41
2022-09-23T04:47:27.260Z,6.39
2022-09-23T04:49:59.801Z,6.39
2022-09-23T04:52:31.391Z,6.39
2022-09-23T04:55:01.541Z,6.38
2022-09-23T04:57:31.268Z,6.37
2022-09-23T04:59:59.823Z,6.38
2022-09-23T05:02:28.312Z,6.39
2022-09-23T05:04:56.257Z,6.42
2022-09-23T05:07:24.529Z,6.46
2022-09-23T05:09:52.263Z,6.49
2022-09-23T05:12:20.201Z,6.53
2022-09-23T05:14:48.002Z,6.56
2022-09-23T05:17:15.958Z,6.59
2022-09-23T05:19:46.580Z,6.62
2022-09-23T05:22:39.700Z,6.66
2022-09-23T05:25:08.436Z,6.67
2022-09-23T05:27:37.335Z,6.70
2022-09-23T05:30:06.125Z,6.71
2022-09-23T05:32:37.346Z,6.73
2022-09-23T05:35:11.736Z,6.75
2022-09-23T05:37:40.339Z,6.77
2022-09-23T05:40:10.564Z,6.78
2022-09-23T05:42:40.419Z,6.80
2022-09-23T05:45:11.618Z,6.82
2022-09-23T05:47:45.066Z,6.84
2022-09-23T05:50:13.132Z,6.86
2022-09-23T05:52:48.636Z,6.88
2022-09-23T05:55:17.017Z,6.91
2022-09-23T05:57:48.566Z,6.94
2022-09-23T06:00:20.494Z,6.98
2022-09-23T06:02:49.560Z,7.02
2022-09-23T06:05:20.868Z,7.06
2022-09-23T06:07:49.311Z,7.11
2022-09-23T06:10:17.783Z,7.16
2022-09-23T06:12:48.653Z,7.22
2022-09-23T06:15:19.389Z,7.27
2022-09-23T06:17:51.349Z,7.33
2022-09-23T06:20:29.313Z,7.40
2022-09-23T06:23:30.105Z,7.47
2022-09-23T06:26:19.238Z,7.56
2022-09-23T06:28:50.506Z,7.64
2022-09-23T06:31:21.636Z,7.73
2022-09-23T06:34:04.682Z,7.82
2022-09-23T06:36:43.965Z,7.91
2022-09-23T06:39:19.995Z,8.01
2022-09-23T06:41:50.732Z,8.11
2022-09-23T06:44:21.752Z,8.23
2022-09-23T06:46:58.489Z,8.33
2022-09-23T06:49:58.070Z,8.45
2022-09-23T06:52:30.169Z,8.58
2022-09-23T06:54:58.751Z,8.69
2022-09-23T07:09:30.984Z,9.38
2022-09-23T07:12:01.326Z,9.51
2022-09-23T07:14:32.023Z,9.64
2022-09-23T07:17:00.275Z,9.76
2022-09-23T07:19:28.552Z,9.91
2022-09-23T07:21:57.799Z,10.07
2022-09-23T07:24:27.065Z,10.21
2022-09-23T07:26:56.496Z,10.34
2022-09-23T07:29:31.303Z,10.45
2022-09-23T07:32:13.197Z,10.60
2022-09-23T07:34:43.728Z,10.74
2022-09-23T07:37:12.915Z,10.88
2022-09-23T07:39:46.180Z,11.03
2022-09-23T07:42:19.021Z,11.17
2022-09-23T07:44:47.607Z,11.32
2022-09-23T07:47:19.741Z,11.46
2022-09-23T07:49:54.305Z,11.57
2022-09-23T07:52:22.821Z,11.63
2022-09-23T07:54:55.335Z,11.69
2022-09-23T07:57:24.368Z,11.76
2022-09-23T07:59:52.768Z,11.85
2022-09-23T08:02:21.495Z,11.95
2022-09-23T08:04:50.156Z,12.07
2022-09-23T08:07:19.536Z,12.20
2022-09-23T08:09:47.920Z,12.34
2022-09-23T08:12:18.883Z,12.47
2022-09-23T08:14:47.850Z,12.63
2022-09-23T08:17:16.464Z,12.80
2022-09-23T08:19:45.333Z,12.96
2022-09-23T08:22:16.478Z,13.12
2022-09-23T08:24:45.388Z,13.30
2022-09-23T08:27:14.730Z,13.49
2022-09-23T08:29:47.009Z,13.72
2022-09-23T08:32:18.392Z,13.94
2022-09-23T08:34:47.058Z,14.18
2022-09-23T08:37:21.382Z,14.41
2022-09-23T08:39:50.239Z,14.67
2022-09-23T08:42:27.187Z,14.94
2022-09-23T08:45:02.082Z,15.24
2022-09-23T08:48:00.843Z,15.58
2022-09-23T08:50:45.351Z,16.00
2022-09-23T08:53:36.216Z,16.41
2022-09-23T08:56:22.419Z,16.90
2022-09-23T08:59:20.819Z,17.43
2022-09-23T09:02:01.392Z,18.13
2022-09-23T09:04:50.665Z,18.76
2022-09-23T09:07:38.433Z,19.25
2022-09-23T09:10:20.826Z,19.83
2022-09-23T09:12:54.980Z,20.39
2022-09-23T09:15:31.165Z,20.88
2022-09-23T09:18:17.541Z,21.31
2022-09-23T09:20:58.049Z,21.80
2022-09-23T09:23:36.923Z,22.32
2022-09-23T09:26:20.251Z,22.82
2022-09-23T09:29:23.377Z,23.26
2022-09-23T09:31:53.486Z,23.77
2022-09-23T09:34:44.140Z,24.12
2022-09-23T09:37:53.404Z,24.49
2022-09-23T09:40:28.877Z,24.84
2022-09-23T09:42:57.864Z,25.09
2022-09-23T09:45:42.707Z,25.25
2022-09-23T09:48:19.558Z,25.31
2022-09-23T09:50:53.308Z,25.35
2022-09-23T09:53:28.608Z,25.43
2022-09-23T09:56:11.024Z,25.36
2022-09-23T09:58:52.611Z,25.10
2022-09-23T10:01:37.168Z,24.75
2022-09-23T10:04:35.315Z,24.37
2022-09-23T10:07:16.237Z,24.10
2022-09-23T10:09:58.318Z,24.00
2022-09-23T10:12:47.467Z,23.95
2022-09-23T10:15:44.751Z,23.86
2022-09-23T10:18:27.731Z,23.65
2022-09-23T10:21:28.350Z,23.35
2022-09-23T10:24:00.157Z,22.96
2022-09-23T10:27:10.476Z,22.60
2022-09-23T10:29:51.675Z,22.19
2022-09-23T10:32:40.315Z,22.00
2022-09-23T10:35:15.106Z,21.84
2022-09-23T10:37:54.032Z,21.63
2022-09-23T10:40:57.459Z,21.37
2022-09-23T10:43:58.897Z,21.08
2022-09-23T10:46:41.357Z,20.80
2022-09-23T10:49:33.879Z,20.56
2022-09-23T10:52:16.344Z,20.31
2022-09-23T10:55:24.747Z,20.09
2022-09-23T10:58:07.533Z,19.90
2022-09-23T11:00:48.164Z,19.76
2022-09-23T11:03:49.041Z,19.80
2022-09-23T11:06:45.577Z,20.07
2022-09-23T11:09:41.570Z,20.49
2022-09-23T11:12:40.349Z,20.91
2022-09-23T11:15:33.434Z,21.38
2022-09-23T11:18:56.040Z,21.79
2022-09-23T11:22:08.411Z,22.16
2022-09-23T11:25:10.386Z,22.29
2022-09-23T11:28:07.735Z,22.25
2022-09-23T11:30:45.916Z,22.13
2022-09-23T11:33:42.162Z,22.01
2022-09-23T11:36:27.335Z,22.06
2022-09-23T11:39:00.727Z,22.20
2022-09-23T11:41:37.661Z,22.27
2022-09-23T11:44:29.713Z,22.35
2022-09-23T11:47:09.510Z,22.48
2022-09-23T11:49:42.636Z,22.62
2022-09-23T11:52:30.879Z,22.75
2022-09-23T11:55:27.901Z,22.82
2022-09-23T11:58:50.138Z,22.89
2022-09-23T12:01:37.630Z,23.01
2022-09-23T12:04:19.742Z,23.10
2022-09-23T12:06:58.589Z,23.20
2022-09-23T12:09:58.175Z,23.28
2022-09-23T12:12:41.144Z,23.38
2022-09-23T12:15:44.648Z,23.44
2022-09-23T12:18:50.287Z,23.48
2022-09-23T12:21:50.824Z,23.52
2022-09-23T12:24:44.998Z,23.53
2022-09-23T12:27:37.065Z,23.53
2022-09-23T12:30:16.769Z,23.53
2022-09-23T12:32:44.984Z,23.56
2022-09-23T12:35:33.718Z,23.56
2022-09-23T12:38:02.488Z,23.46
2022-09-23T12:40:35.906Z,23.33
2022-09-23T12:43:04.076Z,23.18
2022-09-23T12:45:35.487Z,22.96
2022-09-23T12:48:25.246Z,22.71
2022-09-23T12:51:07.615Z,22.43
2022-09-23T12:53:35.538Z,22.13
2022-09-23T12:56:28.165Z,21.89
2022-09-23T12:59:28.660Z,21.62
2022-09-23T13:01:57.967Z,21.36
2022-09-23T13:05:03.917Z,21.13
2022-09-23T13:07:34.272Z,20.88
2022-09-23T13:10:33.634Z,20.68
2022-09-23T13:13:02.543Z,20.48
2022-09-23T13:15:34.435Z,20.34
2022-09-23T13:18:24.421Z,20.23
2022-09-23T13:20:55.122Z,20.14
2022-09-23T13:23:28.955Z,20.05
2022-09-23T13:26:02.478Z,19.89
2022-09-23T13:28:32.237Z,19.76
2022-09-23T13:31:06.626Z,19.63
2022-09-23T13:33:43.281Z,19.50
2022-09-23T13:36:16.087Z,19.38
2022-09-23T13:38:47.125Z,19.27
2022-09-23T13:41:28.719Z,19.15
2022-09-23T13:44:08.160Z,19.04
2022-09-23T13:46:46.049Z,18.95
2022-09-23T13:49:27.007Z,18.85
2022-09-23T13:51:58.450Z,18.76
2022-09-23T13:54:36.997Z,18.68
2022-09-23T13:57:24.646Z,18.59
2022-09-23T13:59:55.170Z,18.53
2022-09-23T14:02:26.171Z,18.48
2022-09-23T14:05:01.417Z,18.45
2022-09-23T14:07:29.725Z,18.43
2022-09-23T14:10:04.862Z,18.40
2022-09-23T14:12:40.031Z,18.36
2022-09-23T14:15:17.920Z,18.33
2022-09-23T14:17:54.924Z,18.28
2022-09-23T14:20:53.412Z,18.23
2022-09-23T14:23:25.023Z,18.15
2022-09-23T14:26:04.122Z,18.06
2022-09-23T14:28:37.238Z,17.99
2022-09-23T14:31:08.482Z,17.92
2022-09-23T14:33:48.148Z,17.86
2022-09-23T14:36:36.886Z,17.79
2022-09-23T14:39:18.653Z,17.73
2022-09-23T14:41:55.295Z,17.66
2022-09-23T14:44:28.294Z,17.60
2022-09-23T14:46:59.989Z,17.54
2022-09-23T14:49:28.044Z,17.48
2022-09-23T14:52:03.444Z,17.44
2022-09-23T14:54:46.008Z,17.40
2022-09-23T14:57:23.299Z,17.36
2022-09-23T15:00:06.467Z,17.32
2022-09-23T15:02:58.488Z,17.27
2022-09-23T15:05:40.026Z,17.23
2022-09-23T15:08:14.374Z,17.19
2022-09-23T15:10:42.364Z,17.17
2022-09-23T15:13:17.932Z,17.13
2022-09-23T15:15:46.141Z,17.10
2022-09-23T15:18:34.069Z,17.08
2022-09-23T15:21:12.846Z,17.06
2022-09-23T15:23:55.294Z,17.03
2022-09-23T15:26:48.653Z,17.00
2022-09-23T15:29:17.337Z,16.97
2022-09-23T15:31:46.862Z,16.94
2022-09-23T15:34:14.900Z,16.91
2022-09-23T15:36:45.141Z,16.87
2022-09-23T15:39:13.594Z,16.83
2022-09-23T15:41:43.250Z,16.80
2022-09-23T15:44:28.646Z,16.76
2022-09-23T15:47:00.456Z,16.71
2022-09-23T15:49:37.215Z,16.67
2022-09-23T15:52:06.201Z,16.62
2022-09-23T15:54:34.543Z,16.57
2022-09-23T15:57:02.432Z,16.51
2022-09-23T15:59:31.821Z,16.47
2022-09-23T16:02:04.287Z,16.42
2022-09-23T16:04:36.064Z,16.37
2022-09-23T16:07:05.704Z,16.32
2022-09-23T16:09:35.709Z,16.27
2022-09-23T16:12:03.755Z,16.24
2022-09-23T16:14:31.595Z,16.18
2022-09-23T16:16:59.753Z,16.13
2022-09-23T16:19:27.585Z,16.06
2022-09-23T16:21:55.358Z,15.99
2022-09-23T16:24:27.908Z,15.94
2022-09-23T16:27:00.015Z,15.88
2022-09-23T16:29:28.041Z,15.83
2022-09-23T16:31:55.996Z,15.77
2022-09-23T16:34:24.194Z,15.71
2022-09-23T16:36:52.030Z,15.64
2022-09-23T16:39:20.832Z,15.57
2022-09-23T16:41:48.761Z,15.50
2022-09-23T16:44:16.580Z,15.42
2022-09-23T16:46:44.441Z,15.34
2022-09-23T16:49:13.789Z,15.26
2022-09-23T16:51:42.059Z,15.18
2022-09-23T16:54:12.723Z,15.09
2022-09-23T16:56:47.042Z,15.00
2022-09-23T16:59:16.475Z,14.90
2022-09-23T17:02:05.121Z,14.81
2022-09-23T17:04:33.354Z,14.72
2022-09-23T17:07:01.310Z,14.63
2022-09-23T17:09:30.249Z,14.57
2022-09-23T17:12:28.128Z,14.59
2022-09-23T17:14:55.875Z,14.59
2022-09-23T17:17:23.735Z,14.56
2022-09-23T17:19:51.692Z,14.53
2022-09-23T17:22:19.656Z,14.48
2022-09-23T17:24:47.545Z,14.44
2022-09-23T17:27:17.220Z,14.38
2022-09-23T17:29:45.319Z,14.33
2022-09-23T17:32:13.285Z,14.27
2022-09-23T17:34:44.034Z,14.21
2022-09-23T17:37:12.093Z,14.13
2022-09-23T17:39:40.055Z,14.06
2022-09-23T17:42:08.238Z,13.98
2022-09-23T17:44:36.571Z,13.91
2022-09-23T17:47:06.349Z,13.84
2022-09-23T17:49:35.500Z,13.80
2022-09-23T17:52:07.515Z,13.74
2022-09-23T17:54:36.634Z,13.68
2022-09-23T17:57:04.838Z,13.63
2022-09-23T17:59:32.897Z,13.56
2022-09-23T18:02:00.971Z,13.49
2022-09-23T18:04:31.854Z,13.42
2022-09-23T18:06:59.847Z,13.34
2022-09-23T18:09:27.981Z,13.27
2022-09-23T18:11:56.504Z,13.20
2022-09-23T18:14:24.504Z,13.12
2022-09-23T18:16:53.828Z,13.07
2022-09-23T18:19:24.965Z,13.01
2022-09-23T18:21:56.539Z,12.96
2022-09-23T18:24:32.201Z,12.91
2022-09-23T18:27:01.567Z,12.86
2022-09-23T18:29:29.827Z,12.82
2022-09-23T18:31:59.415Z,12.77
2022-09-23T18:34:28.802Z,12.73
2022-09-23T18:36:57.325Z,12.68
2022-09-23T18:39:25.349Z,12.63
2022-09-23T18:41:53.320Z,12.58
2022-09-23T18:44:21.336Z,12.55
2022-09-23T18:46:49.289Z,12.57
2022-09-23T18:49:35.859Z,12.52
2022-09-23T18:52:03.868Z,12.47
2022-09-23T18:54:32.030Z,12.45
2022-09-23T18:57:00.269Z,12.44
2022-09-23T18:59:33.770Z,12.43
2022-09-23T19:02:02.164Z,12.42
2022-09-23T19:04:30.453Z,12.42
2022-09-23T19:06:59.488Z,12.40
2022-09-23T19:09:27.729Z,12.39
2022-09-23T19:11:56.713Z,12.39
2022-09-23T19:14:24.881Z,12.38
2022-09-23T19:16:53.002Z,12.38
2022-09-23T19:19:21.142Z,12.38
2022-09-23T19:21:49.213Z,12.36
2022-09-23T19:24:20.162Z,12.34
2022-09-23T19:26:48.842Z,12.31
2022-09-23T19:29:22.094Z,12.29
2022-09-23T19:31:51.012Z,12.31
2022-09-23T19:34:26.172Z,12.33
2022-09-23T19:36:57.453Z,12.34
2022-09-23T19:39:28.555Z,12.34
2022-09-23T19:41:56.471Z,12.34
2022-09-23T19:44:29.852Z,12.34
2022-09-23T19:46:58.017Z,12.35
2022-09-23T19:49:26.426Z,12.37
2022-09-23T19:51:56.290Z,12.37
2022-09-23T19:54:27.529Z,12.38
2022-09-23T19:56:58.725Z,12.39
2022-09-23T19:59:28.454Z,12.40
2022-09-23T20:01:56.857Z,12.41
2022-09-23T20:04:25.347Z,12.41
2022-09-23T20:06:53.362Z,12.41
2022-09-23T20:09:21.557Z,12.41
2022-09-23T20:11:49.870Z,12.41
2022-09-23T20:14:20.100Z,12.40
2022-09-23T20:16:48.486Z,12.40
2022-09-23T20:19:16.784Z,12.40
2022-09-23T20:21:48.157Z,12.41
2022-09-23T20:24:16.200Z,12.42
2022-09-23T20:27:17.037Z,12.44
2022-09-23T20:29:45.612Z,12.45
2022-09-23T20:32:13.427Z,12.45
2022-09-23T20:34:47.038Z,12.44
2022-09-23T20:37:20.455Z,12.42
2022-09-23T20:39:48.866Z,12.40
2022-09-23T20:42:19.430Z,12.38
2022-09-23T20:44:50.173Z,12.37
2022-09-23T20:47:18.995Z,12.35
2022-09-23T20:49:49.990Z,12.33
2022-09-23T20:52:21.865Z,12.31
2022-09-23T20:54:51.660Z,12.29
2022-09-23T20:57:23.743Z,12.27
2022-09-23T20:59:51.864Z,12.24
2022-09-23T21:02:20.433Z,12.21
2022-09-23T21:04:50.975Z,12.18
2022-09-23T21:07:24.263Z,12.15
2022-09-23T21:09:52.725Z,12.12
2022-09-23T21:12:23.250Z,12.09
2022-09-23T21:14:52.817Z,12.06
2022-09-23T21:17:20.829Z,12.02
2022-09-23T21:19:48.815Z,12.00
2022-09-23T21:22:18.134Z,11.97
2022-09-23T21:27:38.397Z,11.94
2022-09-23T21:30:07.775Z,11.92
2022-09-23T21:32:38.994Z,11.92
2022-09-23T21:35:08.322Z,11.89
2022-09-23T21:37:36.606Z,11.87
2022-09-23T21:40:23.784Z,11.86
2022-09-23T21:42:52.760Z,11.85
2022-09-23T21:45:20.989Z,11.84
2022-09-23T21:47:49.172Z,11.83
2022-09-23T21:50:19.421Z,11.82
2022-09-23T21:52:50.449Z,11.81
2022-09-23T21:55:19.197Z,11.80
2022-09-23T21:57:47.785Z,11.79
2022-09-23T22:00:16.165Z,11.78
2022-09-23T22:02:44.199Z,11.77
2022-09-23T22:05:11.949Z,11.76
2022-09-23T22:07:39.757Z,11.75
2022-09-23T22:10:08.080Z,11.75
2022-09-23T22:12:36.098Z,11.73
2022-09-23T22:15:09.536Z,11.71
2022-09-23T22:17:44.768Z,11.70
2022-09-23T22:20:13.766Z,11.69
2022-09-23T22:22:43.078Z,11.67
2022-09-23T22:25:12.653Z,11.66
2022-09-23T22:28:00.607Z,11.66
2022-09-23T22:30:47.631Z,11.65
2022-09-23T22:33:16.460Z,11.65
2022-09-23T22:35:46.649Z,11.65
2022-09-23T22:38:14.556Z,11.65
2022-09-23T22:40:43.607Z,11.65
2022-09-23T22:43:12.146Z,11.65
2022-09-23T22:45:40.025Z,11.65
2022-09-23T22:48:08.288Z,11.66
2022-09-23T22:50:39.789Z,11.67
2022-09-23T22:53:07.609Z,11.67
2022-09-23T22:55:35.726Z,11.67
2022-09-23T22:58:27.572Z,11.67
2022-09-23T23:00:57.308Z,11.67
2022-09-23T23:03:27.098Z,11.68
2022-09-23T23:05:57.095Z,11.69
2022-09-23T23:08:24.969Z,11.70
2022-09-23T23:10:52.735Z,11.70
2022-09-23T23:13:31.484Z,11.71
2022-09-23T23:16:04.873Z,11.71
2022-09-23T23:18:40.969Z,11.71
2022-09-23T23:21:16.057Z,11.72
2022-09-23T23:23:50.637Z,11.71
2022-09-23T23:26:28.283Z,11.71
2022-09-23T23:28:57.102Z,11.71
2022-09-23T23:31:27.873Z,11.72
2022-09-23T23:33:58.979Z,11.72
2022-09-23T23:36:26.956Z,11.72
2022-09-23T23:38:54.883Z,11.72
2022-09-23T23:41:23.364Z,11.71
2022-09-23T23:43:58.322Z,11.72
2022-09-23T23:46:29.392Z,11.72
2022-09-23T23:48:57.959Z,11.72
2022-09-23T23:51:26.743Z,11.72
2022-09-23T23:53:55.485Z,11.72
2022-09-23T23:56:26.269Z,11.71
2022-09-23T23:59:00.516Z,11.70
